createdAt,value
2022-12-23T00:00:19.882Z,30.260
2022-12-23T00:05:16.984Z,30.254
2022-12-23T00:10:19.912Z,30.246
2022-12-23T00:15:16.763Z,30.240
2022-12-23T00:20:19.973Z,30.235
2022-12-23T00:25:19.890Z,30.230
2022-12-23T00:30:19.910Z,30.229
2022-12-23T00:35:19.942Z,30.230
2022-12-23T00:40:19.883Z,30.222
2022-12-23T00:45:19.936Z,30.221
2022-12-23T00:50:19.912Z,30.219
2022-12-23T00:55:19.954Z,30.216
2022-12-23T01:00:16.953Z,30.208
2022-12-23T01:05:17.047Z,30.208
2022-12-23T01:10:19.958Z,30.201
2022-12-23T01:15:19.959Z,30.198
2022-12-23T01:20:19.931Z,30.191
2022-12-23T01:25:20.012Z,30.188
2022-12-23T01:30:19.950Z,30.188
2022-12-23T01:35:17.004Z,30.190
2022-12-23T01:40:19.957Z,30.183
2022-12-23T01:45:17.004Z,30.184
2022-12-23T01:50:16.992Z,30.183
2022-12-23T01:55:20.061Z,30.185
2022-12-23T02:00:19.963Z,30.188
2022-12-23T02:05:19.972Z,30.185
2022-12-23T02:10:20.028Z,30.185
2022-12-23T02:15:17.053Z,30.184
2022-12-23T02:20:20.075Z,30.180
2022-12-23T02:25:20.068Z,30.172
2022-12-23T02:30:17.085Z,30.167
2022-12-23T02:35:17.034Z,30.162
2022-12-23T02:40:16.996Z,30.153
2022-12-23T02:45:20.090Z,30.149
2022-12-23T02:50:20.009Z,30.145
2022-12-23T02:55:19.937Z,30.140
2022-12-23T03:00:20.055Z,30.133
2022-12-23T03:05:19.952Z,30.125
2022-12-23T03:10:20.018Z,30.124
2022-12-23T03:15:17.115Z,30.121
2022-12-23T03:20:17.054Z,30.117
2022-12-23T03:25:17.043Z,30.103
2022-12-23T03:30:17.048Z,30.096
2022-12-23T03:35:17.019Z,30.098
2022-12-23T03:40:20.042Z,30.081
2022-12-23T03:45:38.268Z,30.065
2022-12-23T03:50:20.039Z,30.061
2022-12-23T03:55:20.042Z,30.058
2022-12-23T04:00:17.093Z,30.049
2022-12-23T04:05:17.063Z,30.049
2022-12-23T04:10:20.059Z,30.039
2022-12-23T04:15:20.063Z,30.032
2022-12-23T04:20:20.022Z,30.023
2022-12-23T04:25:17.137Z,30.012
2022-12-23T04:30:17.072Z,30.009
2022-12-23T04:35:20.087Z,30.002
2022-12-23T04:40:20.041Z,29.996
2022-12-23T04:45:20.095Z,29.993
2022-12-23T04:50:17.140Z,29.986
2022-12-23T04:55:20.044Z,29.983
2022-12-23T05:00:16.289Z,29.980
2022-12-23T05:05:19.346Z,29.974
2022-12-23T05:10:19.271Z,29.970
2022-12-23T05:15:19.269Z,29.969
2022-12-23T05:20:16.325Z,29.961
2022-12-23T05:25:16.376Z,29.956
2022-12-23T05:30:16.364Z,29.942
2022-12-23T05:35:19.437Z,29.936
2022-12-23T05:40:21.551Z,29.933
2022-12-23T05:45:19.375Z,29.930
2022-12-23T05:50:19.316Z,29.918
2022-12-23T05:55:16.349Z,29.914
2022-12-23T06:00:16.401Z,29.906
2022-12-23T06:05:19.427Z,29.901
2022-12-23T06:10:19.326Z,29.891
2022-12-23T06:15:16.391Z,29.886
2022-12-23T06:20:20.891Z,29.883
2022-12-23T06:25:19.325Z,29.876
2022-12-23T06:30:19.310Z,29.873
2022-12-23T06:35:16.428Z,29.872
2022-12-23T06:40:16.386Z,29.860
2022-12-23T06:45:19.461Z,29.851
2022-12-23T06:50:19.331Z,29.843
2022-12-23T06:55:16.247Z,29.828
2022-12-23T07:00:16.263Z,29.825
2022-12-23T07:05:19.385Z,29.825
2022-12-23T07:10:19.315Z,29.815
2022-12-23T07:15:16.401Z,29.817
2022-12-23T07:20:16.507Z,29.803
2022-12-23T07:25:19.348Z,29.791
2022-12-23T07:30:19.341Z,29.787
2022-12-23T07:35:16.220Z,29.780
2022-12-23T07:40:19.360Z,29.768
2022-12-23T07:45:16.542Z,29.765
2022-12-23T07:50:19.428Z,29.756
2022-12-23T07:55:19.354Z,29.747
2022-12-23T08:00:19.384Z,29.746
2022-12-23T08:05:19.424Z,29.741
2022-12-23T08:10:16.463Z,29.736
2022-12-23T08:15:19.485Z,29.726
2022-12-23T08:20:16.424Z,29.715
2022-12-23T08:25:16.429Z,29.706
2022-12-23T08:30:19.398Z,29.698
2022-12-23T08:35:19.375Z,29.691
2022-12-23T08:40:19.343Z,29.681
2022-12-23T08:45:19.398Z,29.678
2022-12-23T08:50:19.368Z,29.673
2022-12-23T08:55:19.423Z,29.665
2022-12-23T09:00:19.388Z,29.664
2022-12-23T09:05:16.457Z,29.661
2022-12-23T09:10:16.471Z,29.651
2022-12-23T09:15:19.425Z,29.649
2022-12-23T09:20:19.438Z,29.646
2022-12-23T09:25:19.397Z,29.638
2022-12-23T09:30:19.467Z,29.634
2022-12-23T09:35:19.472Z,29.627
2022-12-23T09:40:19.413Z,29.619
2022-12-23T09:45:19.389Z,29.612
2022-12-23T09:50:19.435Z,29.603
2022-12-23T09:55:19.419Z,29.598
2022-12-23T10:00:19.666Z,29.591
2022-12-23T10:05:19.517Z,29.581
2022-12-23T10:10:16.470Z,29.571
2022-12-23T10:15:19.541Z,29.567
2022-12-23T10:20:19.550Z,29.564
2022-12-23T10:25:16.487Z,29.560
2022-12-23T10:30:42.582Z,29.548
2022-12-23T10:35:16.500Z,29.543
2022-12-23T10:40:19.538Z,29.536
2022-12-23T10:45:19.456Z,29.529
2022-12-23T10:50:19.443Z,29.524
2022-12-23T10:55:16.412Z,29.527
2022-12-23T11:00:19.471Z,29.514
2022-12-23T11:05:19.458Z,29.511
2022-12-23T11:10:19.455Z,29.509
2022-12-23T11:15:19.461Z,29.503
2022-12-23T11:20:19.514Z,29.503
2022-12-23T11:25:16.530Z,29.485
2022-12-23T11:30:16.485Z,29.478
2022-12-23T11:35:16.490Z,29.448
2022-12-23T11:40:19.511Z,29.437
2022-12-23T11:45:19.531Z,29.427
2022-12-23T11:50:19.466Z,29.437
2022-12-23T11:55:19.452Z,29.426
2022-12-23T12:00:19.514Z,29.422
2022-12-23T12:05:19.573Z,29.414
2022-12-23T12:10:16.377Z,29.423
2022-12-23T12:15:16.454Z,29.451
2022-12-23T12:20:19.601Z,29.428
2022-12-23T12:25:16.577Z,29.409
2022-12-23T12:30:19.581Z,29.417
2022-12-23T12:35:16.541Z,29.404
2022-12-23T12:40:16.565Z,29.402
2022-12-23T12:45:16.534Z,29.396
2022-12-23T12:50:19.551Z,29.384
2022-12-23T12:55:16.563Z,29.376
2022-12-23T13:00:16.535Z,29.374
2022-12-23T13:05:16.578Z,29.374
2022-12-23T13:10:16.588Z,29.374
2022-12-23T13:15:16.564Z,29.368
2022-12-23T13:20:19.573Z,29.368
2022-12-23T13:25:19.517Z,29.366
2022-12-23T13:30:19.513Z,29.364
2022-12-23T13:35:16.559Z,29.354
2022-12-23T13:40:16.574Z,29.345
2022-12-23T13:45:19.669Z,29.343
2022-12-23T13:50:16.558Z,29.339
2022-12-23T13:55:19.600Z,29.334
2022-12-23T14:00:16.650Z,29.334
2022-12-23T14:05:19.600Z,29.331
2022-12-23T14:10:19.526Z,29.323
2022-12-23T14:15:16.585Z,29.316
2022-12-23T14:20:16.637Z,29.321
2022-12-23T14:25:19.650Z,29.316
2022-12-23T14:30:16.617Z,29.306
2022-12-23T14:35:16.615Z,29.307
2022-12-23T14:40:19.537Z,29.305
2022-12-23T14:45:19.626Z,29.302
2022-12-23T14:50:19.588Z,29.289
2022-12-23T14:55:32.817Z,29.281
2022-12-23T15:00:16.635Z,29.271
2022-12-23T15:05:16.620Z,29.263
2022-12-23T15:10:16.604Z,29.257
2022-12-23T15:15:19.597Z,29.247
2022-12-23T15:20:19.566Z,29.244
2022-12-23T15:25:16.633Z,29.243
2022-12-23T15:30:19.597Z,29.233
2022-12-23T15:35:16.622Z,29.225
2022-12-23T15:40:19.631Z,29.232
2022-12-23T15:45:16.586Z,29.220
2022-12-23T15:50:16.585Z,29.211
2022-12-23T15:55:16.644Z,29.209
2022-12-23T16:00:16.648Z,29.196
2022-12-23T16:05:16.611Z,29.185
2022-12-23T16:10:19.625Z,29.166
2022-12-23T16:15:19.665Z,29.171
2022-12-23T16:20:19.555Z,29.184
2022-12-23T16:25:19.605Z,29.176
2022-12-23T16:30:16.673Z,29.170
2022-12-23T16:35:16.685Z,29.160
2022-12-23T16:40:19.630Z,29.154
2022-12-23T16:45:19.648Z,29.150
2022-12-23T16:50:19.611Z,29.128
2022-12-23T16:55:19.631Z,29.120
2022-12-23T17:00:19.646Z,29.121
2022-12-23T17:05:19.615Z,29.116
2022-12-23T17:10:19.585Z,29.109
2022-12-23T17:15:19.610Z,29.098
2022-12-23T17:20:16.660Z,29.096
2022-12-23T17:25:22.893Z,29.086
2022-12-23T17:30:16.491Z,29.064
2022-12-23T17:35:19.657Z,29.077
2022-12-23T17:40:19.613Z,29.054
2022-12-23T17:45:19.606Z,29.049
2022-12-23T17:50:19.619Z,29.045
2022-12-23T17:55:16.709Z,29.040
2022-12-23T18:00:25.119Z,29.037
2022-12-23T18:05:19.635Z,29.021
2022-12-23T18:10:16.688Z,29.012
2022-12-23T18:15:16.708Z,29.005
2022-12-23T18:20:16.685Z,28.991
2022-12-23T18:25:16.681Z,28.985
2022-12-23T18:30:16.722Z,28.979
2022-12-23T18:35:19.748Z,28.974
2022-12-23T18:40:16.685Z,28.967
2022-12-23T18:45:16.656Z,28.968
2022-12-23T18:50:16.706Z,28.995
2022-12-23T18:55:19.654Z,28.995
2022-12-23T19:00:16.690Z,29.004
2022-12-23T19:05:16.711Z,29.006
2022-12-23T19:10:16.752Z,29.011
2022-12-23T19:15:19.690Z,29.019
2022-12-23T19:20:19.656Z,29.019
2022-12-23T19:25:16.525Z,29.011
2022-12-23T19:30:16.701Z,29.008
2022-12-23T19:35:19.749Z,29.001
2022-12-23T19:40:19.718Z,28.985
2022-12-23T19:45:16.739Z,28.979
2022-12-23T19:50:16.746Z,28.975
2022-12-23T19:55:19.837Z,28.972
2022-12-23T20:00:19.654Z,28.963
2022-12-23T20:05:19.679Z,28.959
2022-12-23T20:10:19.704Z,28.952
2022-12-23T20:15:16.754Z,28.950
2022-12-23T20:20:19.705Z,28.945
2022-12-23T20:25:16.750Z,28.939
2022-12-23T20:30:19.712Z,28.936
2022-12-23T20:35:19.775Z,28.940
2022-12-23T20:40:19.729Z,28.926
2022-12-23T20:45:19.711Z,28.922
2022-12-23T20:50:16.754Z,28.927
2022-12-23T20:55:19.772Z,28.944
2022-12-23T21:00:16.772Z,28.934
2022-12-23T21:05:19.742Z,28.924
2022-12-23T21:10:16.793Z,28.914
2022-12-23T21:15:19.722Z,28.919
2022-12-23T21:20:19.704Z,28.918
2022-12-23T21:25:19.705Z,28.916
2022-12-23T21:30:19.710Z,28.912
2022-12-23T21:35:16.752Z,28.916
2022-12-23T21:40:16.764Z,28.922
2022-12-23T21:45:19.813Z,28.927
2022-12-23T21:50:16.774Z,28.941
2022-12-23T21:55:16.766Z,28.944
2022-12-23T22:00:16.768Z,28.949
2022-12-23T22:05:19.830Z,28.949
2022-12-23T22:10:19.807Z,28.955
2022-12-23T22:15:19.716Z,28.952
2022-12-23T22:20:16.798Z,28.953
2022-12-23T22:25:16.784Z,28.956
2022-12-23T22:30:19.792Z,28.955
2022-12-23T22:35:19.827Z,28.952
2022-12-23T22:40:19.763Z,28.960
2022-12-23T22:45:16.595Z,28.963
2022-12-23T22:50:19.765Z,28.967
2022-12-23T22:55:16.785Z,28.969
2022-12-23T23:00:16.799Z,28.970
2022-12-23T23:05:16.879Z,28.976
2022-12-23T23:10:16.856Z,28.986
2022-12-23T23:15:16.811Z,28.987
2022-12-23T23:20:16.799Z,28.993
2022-12-23T23:25:16.845Z,28.993
2022-12-23T23:30:19.831Z,28.998
2022-12-23T23:35:19.827Z,29.000
2022-12-23T23:40:19.784Z,29.006
2022-12-23T23:45:19.892Z,29.005
2022-12-23T23:50:19.770Z,29.008
2022-12-23T23:55:19.750Z,29.005
